createdAt,value
2019-01-04T00:00:34.433Z,5.33
2019-01-04T00:02:43.520Z,4.23
2019-01-04T00:04:49.258Z,4.83
2019-01-04T00:06:54.844Z,4.80
2019-01-04T00:09:00.535Z,5.37
2019-01-04T00:11:06.576Z,5.07
2019-01-04T00:13:12.385Z,5.10
2019-01-04T00:15:19.169Z,6.33
2019-01-04T00:17:28.644Z,5.70
2019-01-04T00:19:53.433Z,4.40
2019-01-04T00:22:01.192Z,4.50
2019-01-04T00:24:07.006Z,4.80
2019-01-04T00:28:56.450Z,5.60
2019-01-04T00:31:21.548Z,5.77
2019-01-04T00:33:38.890Z,5.00
2019-01-04T00:36:03.625Z,4.73
2019-01-04T00:38:28.319Z,5.83
2019-01-04T00:40:34.106Z,5.87
2019-01-04T00:42:40.448Z,6.23
2019-01-04T00:44:47.335Z,5.63
2019-01-04T00:46:53.648Z,5.90
2019-01-04T00:49:02.017Z,5.90
2019-01-04T00:51:07.710Z,6.43
2019-01-04T00:53:32.507Z,6.43
2019-01-04T00:56:22.673Z,6.03
2019-01-04T00:58:48.822Z,5.40
2019-01-04T01:04:53.084Z,5.07
2019-01-04T01:07:56.638Z,5.40
2019-01-04T01:10:59.437Z,5.40
2019-01-04T01:14:02.199Z,4.73
2019-01-04T01:16:39.247Z,5.73
2019-01-04T01:19:42.027Z,5.50
2019-01-04T01:22:24.601Z,6.10
2019-01-04T01:25:27.728Z,6.07
2019-01-04T01:28:01.500Z,5.77
2019-01-04T01:31:04.243Z,5.70
2019-01-04T01:33:30.826Z,5.40
2019-01-04T01:39:23.283Z,5.50
2019-01-04T01:42:26.044Z,5.63
2019-01-04T01:45:29.746Z,5.50
2019-01-04T01:48:06.059Z,6.57
2019-01-04T01:50:36.697Z,6.77
2019-01-04T01:53:01.748Z,6.40
2019-01-04T01:55:45.243Z,7.07
2019-01-04T01:58:10.225Z,5.90
2019-01-04T02:00:27.585Z,5.80
2019-01-04T02:02:52.822Z,6.30
2019-01-04T02:05:10.022Z,6.03
2019-01-04T02:07:34.724Z,5.87
2019-01-04T02:09:59.411Z,6.80
2019-01-04T02:12:17.759Z,6.40
2019-01-04T02:14:42.869Z,6.20
2019-01-04T02:17:00.579Z,6.47
2019-01-04T02:19:25.529Z,6.60
2019-01-04T02:21:43.872Z,6.10
2019-01-04T02:24:09.499Z,5.90
2019-01-04T02:26:34.196Z,5.80
2019-01-04T02:28:59.247Z,6.10
2019-01-04T02:31:26.654Z,6.07
2019-01-04T02:33:33.195Z,5.97
2019-01-04T02:38:17.093Z,6.40
2019-01-04T02:40:41.732Z,6.67
2019-01-04T02:42:58.599Z,6.83
2019-01-04T02:45:16.963Z,5.60
2019-01-04T02:47:34.562Z,5.87
2019-01-04T02:49:59.458Z,6.20
2019-01-04T02:52:24.191Z,5.80
2019-01-04T02:54:41.853Z,6.17
2019-01-04T02:59:34.412Z,5.20
2019-01-04T03:01:59.624Z,6.20
2019-01-04T03:04:05.671Z,6.20
2019-01-04T03:06:30.437Z,5.70
2019-01-04T03:08:48.334Z,5.80
2019-01-04T03:11:13.209Z,6.70
2019-01-04T03:13:30.759Z,5.93
2019-01-04T03:15:55.395Z,7.10
2019-01-04T03:18:14.489Z,6.00
2019-01-04T03:20:20.280Z,6.00
2019-01-04T03:22:28.731Z,6.50
2019-01-04T03:24:53.449Z,5.87
2019-01-04T03:27:11.017Z,5.33
2019-01-04T03:30:01.365Z,5.40
2019-01-04T03:31:58.342Z,5.57
2019-01-04T03:34:37.139Z,6.20
2019-01-04T03:36:42.248Z,5.77
2019-01-04T03:39:07.119Z,5.13
2019-01-04T03:41:12.772Z,5.30
2019-01-04T03:43:37.518Z,5.80
2019-01-04T03:45:54.432Z,4.80
2019-01-04T03:48:19.133Z,6.20
2019-01-04T03:50:24.782Z,5.90
2019-01-04T03:52:30.914Z,5.57
2019-01-04T03:54:55.616Z,6.53
2019-01-04T03:57:20.325Z,6.50
2019-01-04T03:59:45.075Z,5.50
2019-01-04T04:04:40.029Z,5.70
2019-01-04T04:06:57.364Z,5.67
2019-01-04T04:09:22.146Z,5.57
2019-01-04T04:11:39.319Z,5.20
2019-01-04T04:13:56.902Z,5.47
2019-01-04T04:16:42.279Z,5.37
2019-01-04T04:19:02.311Z,6.93
2019-01-04T04:21:19.976Z,6.23
2019-01-04T04:23:44.709Z,6.07
2019-01-04T04:26:02.823Z,6.50
2019-01-04T04:28:27.675Z,6.60
2019-01-04T04:30:45.257Z,6.40
2019-01-04T04:33:09.946Z,5.73
2019-01-04T04:35:27.816Z,6.10
2019-01-04T04:37:52.528Z,5.83
2019-01-04T04:40:17.610Z,6.60
2019-01-04T04:42:42.294Z,8.07
2019-01-04T04:44:49.105Z,7.90
2019-01-04T04:47:07.527Z,7.33
2019-01-04T04:49:32.308Z,7.87
2019-01-04T04:52:11.622Z,8.30
2019-01-04T04:54:17.835Z,7.47
2019-01-04T04:56:42.602Z,7.83
2019-01-04T04:58:59.574Z,7.87
2019-01-04T05:01:38.738Z,7.37
2019-01-04T05:03:44.401Z,8.30
2019-01-04T05:06:10.822Z,7.80
2019-01-04T05:08:35.556Z,8.37
2019-01-04T05:11:00.388Z,8.50
2019-01-04T05:13:25.482Z,9.40
2019-01-04T05:16:04.679Z,9.80
2019-01-04T05:18:09.511Z,7.70
2019-01-04T05:20:34.213Z,8.20
2019-01-04T05:22:51.359Z,8.97
2019-01-04T05:25:35.015Z,9.10
2019-01-04T05:27:52.553Z,8.70
2019-01-04T05:30:17.221Z,12.37
2019-01-04T05:33:02.393Z,8.90
2019-01-04T05:35:08.545Z,9.50
2019-01-04T05:37:14.283Z,9.40
2019-01-04T05:39:19.957Z,9.63
2019-01-04T05:44:28.144Z,7.80
2019-01-04T05:46:53.536Z,8.80
2019-01-04T05:49:10.562Z,9.93
2019-01-04T05:51:35.447Z,8.73
2019-01-04T05:53:53.062Z,8.10
2019-01-04T05:56:17.766Z,8.00
2019-01-04T05:58:42.917Z,9.13
2019-01-04T06:01:00.828Z,8.30
2019-01-04T06:03:44.335Z,9.13
2019-01-04T06:06:01.243Z,8.77
2019-01-04T06:08:26.287Z,10.30
2019-01-04T06:10:35.071Z,9.87
2019-01-04T06:12:41.050Z,10.10
2019-01-04T06:15:09.036Z,8.83
2019-01-04T06:17:33.754Z,9.57
2019-01-04T06:19:39.655Z,7.87
2019-01-04T06:22:04.880Z,8.93
2019-01-04T06:24:23.296Z,8.70
2019-01-04T06:29:32.619Z,7.70
2019-01-04T06:31:57.257Z,9.47
2019-01-04T06:34:02.921Z,8.00
2019-01-04T06:36:30.078Z,7.80
2019-01-04T06:38:50.977Z,7.67
2019-01-04T06:41:15.787Z,7.67
2019-01-04T06:43:33.409Z,7.37
2019-01-04T06:45:58.824Z,7.07
2019-01-04T06:48:15.997Z,7.43
2019-01-04T06:52:43.200Z,7.10
2019-01-04T06:55:30.609Z,6.37
2019-01-04T06:57:36.606Z,7.47
2019-01-04T07:00:03.101Z,6.90
2019-01-04T07:02:27.784Z,6.23
2019-01-04T07:04:33.751Z,7.30
2019-01-04T07:11:23.714Z,6.53
2019-01-04T07:13:48.426Z,6.33
2019-01-04T07:16:05.301Z,6.60
2019-01-04T07:18:30.126Z,5.30
2019-01-04T07:20:57.880Z,5.70
2019-01-04T07:25:53.170Z,6.83
2019-01-04T07:28:01.967Z,6.77
2019-01-04T07:30:08.160Z,6.57
2019-01-04T07:32:33.045Z,6.03
2019-01-04T07:34:38.810Z,4.97
2019-01-04T07:36:44.828Z,6.43
2019-01-04T07:39:28.507Z,8.00
2019-01-04T07:41:53.554Z,6.63
2019-01-04T07:44:10.842Z,7.17
2019-01-04T07:46:38.974Z,6.77
2019-01-04T07:49:04.235Z,8.00
2019-01-04T07:51:30.928Z,7.50
2019-01-04T07:53:48.956Z,8.07
2019-01-04T07:56:14.418Z,5.83
2019-01-04T07:58:41.155Z,6.87
2019-01-04T08:01:06.215Z,6.77
2019-01-04T08:03:30.945Z,9.03
2019-01-04T08:06:00.975Z,7.97
2019-01-04T08:08:07.526Z,8.67
2019-01-04T08:10:16.021Z,8.20
2019-01-04T08:12:22.836Z,7.57
2019-01-04T08:14:28.641Z,9.00
2019-01-04T08:16:34.354Z,6.47
2019-01-04T08:19:17.950Z,8.80
2019-01-04T08:21:23.638Z,6.90
2019-01-04T08:23:48.389Z,6.23
2019-01-04T08:25:54.337Z,6.50
2019-01-04T08:28:06.346Z,9.60
2019-01-04T08:32:42.648Z,8.50
2019-01-04T08:34:48.796Z,8.90
2019-01-04T08:36:55.596Z,7.67
2019-01-04T08:39:20.593Z,11.10
2019-01-04T08:41:26.397Z,10.30
2019-01-04T08:43:35.061Z,11.33
2019-01-04T08:45:45.579Z,10.77
2019-01-04T08:48:10.977Z,11.70
2019-01-04T08:50:58.117Z,12.17
2019-01-04T08:53:04.631Z,10.60
2019-01-04T08:55:31.824Z,12.60
2019-01-04T08:57:58.876Z,11.90
2019-01-04T09:00:25.947Z,10.00
2019-01-04T09:02:31.692Z,10.40
2019-01-04T09:05:15.472Z,11.20
2019-01-04T09:08:00.553Z,11.50
2019-01-04T09:10:25.704Z,10.63
2019-01-04T09:12:43.057Z,12.23
2019-01-04T09:18:22.346Z,13.77
2019-01-04T09:20:27.982Z,13.17
2019-01-04T09:22:53.039Z,8.50
2019-01-04T09:24:59.498Z,11.20
2019-01-04T09:30:03.109Z,11.70
2019-01-04T09:32:27.837Z,13.30
2019-01-04T09:34:45.608Z,15.30
2019-01-04T09:39:46.534Z,15.10
2019-01-04T09:42:08.322Z,10.80
2019-01-04T09:44:14.158Z,11.50
2019-01-04T09:46:38.967Z,16.87
2019-01-04T09:48:56.217Z,16.30
2019-01-04T09:51:21.184Z,15.80
2019-01-04T09:53:27.335Z,18.00
2019-01-04T09:55:33.604Z,14.70
2019-01-04T09:57:58.407Z,14.03
2019-01-04T10:00:08.447Z,14.13
2019-01-04T10:02:14.404Z,15.70
2019-01-04T10:04:20.086Z,17.07
2019-01-04T10:06:44.822Z,17.50
2019-01-04T10:09:03.106Z,15.10
2019-01-04T10:11:08.811Z,13.93
2019-01-04T10:13:14.599Z,11.80
2019-01-04T10:15:39.858Z,19.40
2019-01-04T10:17:45.802Z,15.17
2019-01-04T10:19:51.721Z,14.80
2019-01-04T10:21:57.851Z,14.97
2019-01-04T10:24:22.794Z,14.60
2019-01-04T10:27:06.537Z,14.70
2019-01-04T10:29:25.195Z,12.10
2019-01-04T10:31:30.865Z,13.37
2019-01-04T10:33:36.867Z,13.00
2019-01-04T10:35:42.609Z,14.50
2019-01-04T10:37:49.158Z,15.40
2019-01-04T10:39:55.249Z,16.40
2019-01-04T10:42:01.294Z,13.50
2019-01-04T10:44:26.246Z,13.00
2019-01-04T10:46:51.131Z,12.63
2019-01-04T10:48:58.628Z,11.37
2019-01-04T10:51:05.316Z,13.70
2019-01-04T10:53:11.695Z,11.47
2019-01-04T10:55:20.797Z,8.50
2019-01-04T10:57:39.404Z,9.80
2019-01-04T10:59:45.784Z,11.20
2019-01-04T11:01:53.924Z,10.73
2019-01-04T11:04:19.521Z,11.00
2019-01-04T11:06:47.003Z,9.43
2019-01-04T11:09:06.906Z,9.10
2019-01-04T11:11:12.785Z,11.33
2019-01-04T11:13:39.268Z,3.50
2019-01-04T11:15:56.935Z,10.07
2019-01-04T11:18:21.988Z,10.20
2019-01-04T11:20:48.518Z,7.67
2019-01-04T11:23:53.323Z,9.00
2019-01-04T11:26:40.450Z,8.00
2019-01-04T11:29:17.090Z,5.50
2019-01-04T11:32:13.088Z,5.80
2019-01-04T11:35:11.022Z,7.90
2019-01-04T11:37:47.196Z,6.67
2019-01-04T11:40:55.898Z,7.60
2019-01-04T11:44:07.794Z,4.80
2019-01-04T11:46:58.009Z,7.97
2019-01-04T11:49:25.799Z,7.07
2019-01-04T11:52:08.302Z,6.80
2019-01-04T11:54:35.526Z,9.10
2019-01-04T11:56:54.393Z,6.57
2019-01-04T11:59:01.046Z,4.90
2019-01-04T12:01:07.681Z,7.90
2019-01-04T12:03:13.429Z,6.60
2019-01-04T12:05:19.267Z,6.17
2019-01-04T12:07:25.774Z,7.47
2019-01-04T12:09:31.465Z,8.33
2019-01-04T12:11:37.509Z,7.70
2019-01-04T12:13:45.538Z,6.10
2019-01-04T12:16:10.921Z,9.63
2019-01-04T12:18:30.974Z,7.80
2019-01-04T12:20:37.089Z,4.70
2019-01-04T12:22:47.514Z,8.40
2019-01-04T12:25:12.959Z,10.10
2019-01-04T12:27:21.181Z,11.20
2019-01-04T12:29:29.012Z,10.00
2019-01-04T12:31:35.524Z,10.30
2019-01-04T12:33:41.190Z,10.20
2019-01-04T12:35:47.226Z,8.70
2019-01-04T12:38:11.968Z,9.17
2019-01-04T12:40:17.751Z,10.60
2019-01-04T12:42:23.518Z,12.20
2019-01-04T12:44:30.901Z,12.30
2019-01-04T12:46:38.655Z,14.50
2019-01-04T12:49:17.410Z,11.17
2019-01-04T12:51:24.324Z,10.23
2019-01-04T12:53:32.271Z,13.00
2019-01-04T12:55:38.580Z,15.10
2019-01-04T12:57:44.186Z,15.47
2019-01-04T12:59:52.063Z,12.70
2019-01-04T13:01:58.841Z,14.27
2019-01-04T13:04:05.489Z,13.70
2019-01-04T13:06:11.337Z,15.33
2019-01-04T13:08:36.398Z,13.77
2019-01-04T13:10:42.270Z,14.10
2019-01-04T13:13:11.326Z,14.60
2019-01-04T13:15:17.302Z,15.73
2019-01-04T13:17:23.455Z,16.20
2019-01-04T13:19:29.174Z,15.97
2019-01-04T13:21:37.759Z,16.20
2019-01-04T13:23:43.985Z,14.47
2019-01-04T13:25:50.386Z,16.10
2019-01-04T13:27:56.401Z,11.57
2019-01-04T13:30:02.566Z,18.17
2019-01-04T13:32:10.897Z,17.17
2019-01-04T13:34:16.778Z,18.03
2019-01-04T13:36:22.539Z,17.37
2019-01-04T13:38:28.278Z,17.00
2019-01-04T13:40:33.914Z,13.50
2019-01-04T13:42:40.858Z,18.17
2019-01-04T13:44:48.494Z,17.53
2019-01-04T13:46:56.312Z,18.30
2019-01-04T13:49:06.514Z,17.70
2019-01-04T13:51:12.341Z,17.73
2019-01-04T13:53:19.182Z,18.63
2019-01-04T13:55:25.143Z,20.67
2019-01-04T13:57:33.105Z,19.17
2019-01-04T13:59:58.035Z,18.57
2019-01-04T14:02:07.669Z,17.13
2019-01-04T14:04:13.513Z,17.50
2019-01-04T14:06:19.957Z,16.13
2019-01-04T14:08:44.648Z,17.40
2019-01-04T14:10:50.416Z,16.67
2019-01-04T14:12:56.064Z,19.17
2019-01-04T14:15:01.720Z,17.70
2019-01-04T14:17:07.775Z,18.10
2019-01-04T14:19:33.185Z,17.90
2019-01-04T14:21:50.601Z,18.10
2019-01-04T14:23:56.340Z,16.50
2019-01-04T14:26:21.008Z,17.40
2019-01-04T14:29:05.749Z,16.73
2019-01-04T14:31:11.471Z,16.13
2019-01-04T14:33:17.239Z,20.27
2019-01-04T14:35:23.862Z,19.83
2019-01-04T14:37:30.021Z,18.83
2019-01-04T14:39:35.702Z,17.37
2019-01-04T14:41:42.648Z,15.30
2019-01-04T14:43:48.771Z,19.97
2019-01-04T14:45:54.776Z,22.13
2019-01-04T14:48:00.513Z,9.87
2019-01-04T14:50:08.440Z,16.37
2019-01-04T14:52:35.249Z,20.07
2019-01-04T14:54:41.751Z,16.67
2019-01-04T14:56:47.755Z,16.13
2019-01-04T14:58:53.505Z,17.70
2019-01-04T15:00:59.464Z,18.37
2019-01-04T15:03:06.516Z,16.03
2019-01-04T15:05:34.796Z,19.70
2019-01-04T15:07:41.616Z,21.10
2019-01-04T15:09:47.225Z,19.50
2019-01-04T15:11:53.974Z,20.57
2019-01-04T15:13:59.639Z,17.03
2019-01-04T15:16:05.315Z,20.37
2019-01-04T15:20:37.606Z,17.00
2019-01-04T15:22:43.629Z,22.00
2019-01-04T15:24:49.656Z,18.40
2019-01-04T15:27:14.430Z,20.10
2019-01-04T15:29:20.409Z,23.93
2019-01-04T15:31:26.151Z,21.47
2019-01-04T15:33:51.348Z,22.63
2019-01-04T15:35:57.022Z,21.00
2019-01-04T15:38:06.966Z,13.67
2019-01-04T15:40:31.702Z,21.60
2019-01-04T15:42:38.711Z,21.27
2019-01-04T15:45:03.400Z,20.70
2019-01-04T15:47:09.532Z,13.57
2019-01-04T15:49:16.301Z,28.70
2019-01-04T15:51:45.232Z,26.80
2019-01-04T15:53:52.260Z,24.40
2019-01-04T15:55:57.925Z,16.10
2019-01-04T15:58:04.053Z,21.60
2019-01-04T16:00:12.775Z,31.70
2019-01-04T16:02:18.945Z,27.50
2019-01-04T16:04:38.148Z,30.43
2019-01-04T16:06:44.005Z,30.07
2019-01-04T16:08:50.141Z,29.50
2019-01-04T16:10:55.882Z,20.77
2019-01-04T16:13:02.372Z,26.43
2019-01-04T16:15:27.421Z,22.77
2019-01-04T16:17:33.112Z,21.90
2019-01-04T16:19:59.897Z,29.77
2019-01-04T16:22:05.547Z,31.33
2019-01-04T16:24:12.818Z,31.27
2019-01-04T16:26:18.497Z,27.70
2019-01-04T16:28:27.105Z,29.30
2019-01-04T16:30:32.927Z,34.80
2019-01-04T16:32:38.640Z,22.57
2019-01-04T16:35:03.306Z,31.70
2019-01-04T16:37:48.986Z,31.63
2019-01-04T16:40:13.719Z,34.93
2019-01-04T16:42:30.766Z,27.47
2019-01-04T16:44:36.406Z,19.23
2019-01-04T16:46:45.123Z,29.93
2019-01-04T16:48:52.831Z,26.40
2019-01-04T16:50:58.494Z,30.83
2019-01-04T16:53:04.179Z,37.10
2019-01-04T16:55:11.447Z,24.27
2019-01-04T16:57:17.842Z,32.60
2019-01-04T16:59:23.527Z,23.17
2019-01-04T17:01:29.200Z,29.87
2019-01-04T17:03:34.842Z,36.47
2019-01-04T17:05:44.120Z,32.40
2019-01-04T17:07:49.750Z,36.40
2019-01-04T17:10:14.432Z,39.13
2019-01-04T17:12:20.159Z,33.30
2019-01-04T17:14:26.837Z,37.40
2019-01-04T17:16:35.311Z,34.33
2019-01-04T17:19:00.553Z,39.30
2019-01-04T17:21:07.361Z,28.37
2019-01-04T17:23:15.731Z,34.90
2019-01-04T17:25:21.738Z,38.07
2019-01-04T17:27:46.471Z,43.50
2019-01-04T17:29:52.529Z,34.47
2019-01-04T17:31:58.363Z,28.37
2019-01-04T17:34:04.200Z,32.87
2019-01-04T17:36:09.947Z,36.03
2019-01-04T17:38:34.969Z,37.07
2019-01-04T17:40:52.281Z,38.20
2019-01-04T17:43:18.491Z,33.40
2019-01-04T17:45:37.274Z,34.83
2019-01-04T17:47:32.261Z,37.80
2019-01-04T17:49:39.423Z,32.83
2019-01-04T17:51:45.129Z,28.37
2019-01-04T17:53:51.120Z,31.37
2019-01-04T17:56:15.941Z,39.47
2019-01-04T17:58:21.677Z,32.03
2019-01-04T18:00:27.313Z,32.00
2019-01-04T18:02:33.022Z,39.37
2019-01-04T18:04:59.245Z,40.00
2019-01-04T18:07:20.483Z,30.60
2019-01-04T18:09:26.129Z,35.30
2019-01-04T18:11:34.269Z,41.10
2019-01-04T18:13:39.918Z,35.17
2019-01-04T18:15:47.941Z,31.40
2019-01-04T18:18:12.623Z,23.70
2019-01-04T18:20:20.098Z,33.77
2019-01-04T18:22:27.279Z,27.63
2019-01-04T18:24:52.447Z,30.07
2019-01-04T18:27:10.157Z,31.93
2019-01-04T18:29:16.507Z,30.57
2019-01-04T18:31:23.296Z,36.20
2019-01-04T18:36:00.868Z,26.00
2019-01-04T18:38:06.864Z,23.47
2019-01-04T18:40:13.241Z,29.10
2019-01-04T18:42:37.923Z,29.60
2019-01-04T18:44:44.891Z,23.23
2019-01-04T18:46:50.514Z,32.20
2019-01-04T18:48:56.324Z,42.23
2019-01-04T18:51:21.011Z,24.87
2019-01-04T18:53:26.766Z,34.70
2019-01-04T18:55:32.511Z,34.00
2019-01-04T18:57:57.179Z,37.63
2019-01-04T19:00:02.895Z,19.17
2019-01-04T19:02:08.551Z,34.60
2019-01-04T19:06:40.503Z,34.97
2019-01-04T19:08:59.083Z,27.83
2019-01-04T19:11:05.258Z,29.70
2019-01-04T19:13:10.881Z,22.80
2019-01-04T19:15:19.715Z,40.20
2019-01-04T19:17:25.671Z,33.60
2019-01-04T19:19:31.371Z,34.47
2019-01-04T19:21:37.045Z,27.50
2019-01-04T19:23:42.656Z,32.53
2019-01-04T19:25:51.307Z,37.60
2019-01-04T19:27:56.954Z,35.07
2019-01-04T19:30:02.909Z,27.30
2019-01-04T19:32:08.551Z,30.97
2019-01-04T19:34:14.467Z,33.17
2019-01-04T19:36:44.923Z,31.30
2019-01-04T19:39:06.107Z,30.60
2019-01-04T19:41:01.386Z,21.03
2019-01-04T19:43:26.070Z,33.00
2019-01-04T19:45:31.942Z,23.60
2019-01-04T19:47:39.212Z,25.37
2019-01-04T19:49:45.108Z,30.20
2019-01-04T19:52:12.266Z,31.60
2019-01-04T19:54:18.024Z,32.57
2019-01-04T19:56:23.716Z,31.67
2019-01-04T19:58:49.550Z,22.97
2019-01-04T20:00:56.271Z,27.63
2019-01-04T20:03:02.483Z,34.00
2019-01-04T20:08:54.642Z,23.47
2019-01-04T20:12:23.194Z,32.67
2019-01-04T20:15:39.415Z,26.00
2019-01-04T20:18:09.090Z,27.80
2019-01-04T20:20:38.228Z,24.63
2019-01-04T20:23:21.818Z,31.03
2019-01-04T20:25:47.100Z,29.93
2019-01-04T20:28:11.772Z,21.90
2019-01-04T20:30:36.349Z,25.33
2019-01-04T20:33:07.505Z,26.30
2019-01-04T20:35:32.870Z,27.73
2019-01-04T20:37:58.113Z,25.47
2019-01-04T20:40:25.659Z,20.87
2019-01-04T20:42:50.126Z,17.60
2019-01-04T20:45:21.382Z,23.57
2019-01-04T20:47:47.461Z,31.90
2019-01-04T20:50:18.712Z,24.40
2019-01-04T20:52:43.974Z,27.53
2019-01-04T20:57:49.242Z,21.10
2019-01-04T21:02:54.050Z,20.90
2019-01-04T21:05:19.259Z,24.40
2019-01-04T21:07:41.567Z,28.90
2019-01-04T21:10:31.191Z,28.20
2019-01-04T21:12:54.394Z,23.90
2019-01-04T21:15:25.170Z,29.23
2019-01-04T21:17:52.053Z,25.60
2019-01-04T21:20:28.431Z,26.20
2019-01-04T21:22:53.014Z,26.87
2019-01-04T21:25:32.261Z,27.00
2019-01-04T21:27:56.845Z,27.40
2019-01-04T21:30:21.713Z,28.37
2019-01-04T21:32:46.515Z,27.00
2019-01-04T21:35:30.413Z,25.90
2019-01-04T21:37:56.556Z,25.83
2019-01-04T21:43:00.385Z,22.77
2019-01-04T21:47:58.832Z,28.13
2019-01-04T21:50:23.694Z,27.83
2019-01-04T21:53:06.101Z,27.00
2019-01-04T21:55:36.789Z,30.30
2019-01-04T21:58:01.849Z,27.63
2019-01-04T22:03:11.816Z,28.00
2019-01-04T22:05:42.224Z,32.10
2019-01-04T22:10:33.185Z,28.97
2019-01-04T22:13:03.998Z,31.53
2019-01-04T22:15:47.813Z,21.73
2019-01-04T22:18:12.593Z,26.60
2019-01-04T22:20:56.514Z,32.77
2019-01-04T22:23:40.108Z,30.33
2019-01-04T22:26:05.063Z,28.00
2019-01-04T22:28:29.564Z,31.23
2019-01-04T22:30:56.063Z,28.37
2019-01-04T22:33:20.683Z,16.37
2019-01-04T22:35:48.089Z,20.87
2019-01-04T22:38:15.365Z,25.90
2019-01-04T22:40:40.183Z,28.57
2019-01-04T22:43:23.769Z,28.53
2019-01-04T22:45:49.913Z,23.93
2019-01-04T22:48:19.340Z,29.27
2019-01-04T22:50:44.972Z,30.53
2019-01-04T22:53:10.876Z,28.37
2019-01-04T22:55:35.691Z,31.93
2019-01-04T22:58:00.750Z,29.77
2019-01-04T23:00:52.213Z,28.50
2019-01-04T23:03:17.817Z,32.33
2019-01-04T23:05:42.475Z,22.00
2019-01-04T23:08:13.432Z,17.40
2019-01-04T23:10:39.008Z,27.97
2019-01-04T23:13:17.805Z,26.70
2019-01-04T23:18:12.847Z,27.27
2019-01-04T23:20:40.290Z,26.50
2019-01-04T23:23:05.975Z,12.33
2019-01-04T23:25:29.181Z,26.60
2019-01-04T23:28:13.097Z,26.70
2019-01-04T23:30:37.561Z,29.20
2019-01-04T23:32:58.480Z,22.93
2019-01-04T23:35:26.185Z,26.40
2019-01-04T23:37:52.769Z,25.70
2019-01-04T23:40:19.538Z,21.67
2019-01-04T23:42:59.319Z,25.70
2019-01-04T23:45:24.977Z,24.40
2019-01-04T23:47:49.459Z,24.37
2019-01-04T23:50:25.931Z,26.53
2019-01-04T23:53:09.501Z,24.63
2019-01-04T23:58:14.115Z,24.20
